createdAt,value
2023-10-09T00:01:02.480Z,79.92
2023-10-09T00:04:24.643Z,80.64
2023-10-09T00:07:47.394Z,81.51
2023-10-09T00:11:17.501Z,81.41
2023-10-09T00:14:40.011Z,81.13
2023-10-09T00:18:02.304Z,81.91
2023-10-09T00:21:28.944Z,82.16
2023-10-09T00:24:52.398Z,81.17
2023-10-09T00:28:22.668Z,80.52
2023-10-09T00:31:51.291Z,81.34
2023-10-09T00:35:26.484Z,82.17
2023-10-09T00:38:51.795Z,81.91
2023-10-09T00:42:15.716Z,82.44
2023-10-09T00:45:41.422Z,82.55
2023-10-09T00:49:04.203Z,83.28
2023-10-09T00:52:32.546Z,83.48
2023-10-09T00:55:57.384Z,84.21
2023-10-09T00:59:21.851Z,85.19
2023-10-09T01:02:45.675Z,85.93
2023-10-09T01:06:17.961Z,85.94
2023-10-09T01:09:44.508Z,86.51
2023-10-09T01:13:05.930Z,87.05
2023-10-09T01:16:30.152Z,86.69
2023-10-09T01:19:57.084Z,86.58
2023-10-09T01:23:20.193Z,86.17
2023-10-09T01:26:47.488Z,85.93
2023-10-09T01:30:15.448Z,86.17
2023-10-09T01:33:38.223Z,86.23
2023-10-09T01:37:01.167Z,86.58
2023-10-09T01:40:28.499Z,86.61
2023-10-09T01:43:52.693Z,86.96
2023-10-09T01:47:19.292Z,87.34
2023-10-09T01:50:43.019Z,87.42
2023-10-09T01:54:04.759Z,87.75
2023-10-09T01:57:31.247Z,87.52
2023-10-09T02:00:56.080Z,88.02
2023-10-09T02:04:21.494Z,88.05
2023-10-09T02:07:45.639Z,88.31
2023-10-09T02:11:08.384Z,89.13
2023-10-09T02:14:31.487Z,88.77
2023-10-09T02:18:01.870Z,88.98
2023-10-09T02:21:33.761Z,89.03
2023-10-09T02:25:06.411Z,89.32
2023-10-09T02:28:33.942Z,89.85
2023-10-09T02:32:02.290Z,90.23
2023-10-09T02:35:32.421Z,90.56
2023-10-09T02:38:57.508Z,90.86
2023-10-09T02:42:24.399Z,90.91
2023-10-09T02:45:51.391Z,91.10
2023-10-09T02:49:17.497Z,91.77
2023-10-09T02:52:42.632Z,91.83
2023-10-09T02:56:13.448Z,91.98
2023-10-09T02:59:35.706Z,91.81
2023-10-09T03:02:59.392Z,91.27
2023-10-09T03:06:26.276Z,90.83
2023-10-09T03:09:49.821Z,91.22
2023-10-09T03:13:11.389Z,91.17
2023-10-09T03:16:32.674Z,91.30
2023-10-09T03:19:54.835Z,91.63
2023-10-09T03:23:17.922Z,91.74
2023-10-09T03:26:39.863Z,91.74
2023-10-09T03:30:06.259Z,92.15
2023-10-09T03:33:28.088Z,92.39
2023-10-09T03:36:52.331Z,92.56
2023-10-09T03:40:19.005Z,92.57
2023-10-09T03:43:42.112Z,92.86
2023-10-09T03:47:03.791Z,92.92
2023-10-09T03:50:31.459Z,93.24
2023-10-09T03:53:54.157Z,92.99
2023-10-09T03:57:20.732Z,93.02
2023-10-09T04:00:46.352Z,93.32
2023-10-09T04:04:11.712Z,93.00
2023-10-09T04:07:34.748Z,93.22
2023-10-09T04:11:02.766Z,93.31
2023-10-09T04:14:33.373Z,93.07
2023-10-09T04:17:58.114Z,93.40
2023-10-09T04:21:35.370Z,93.62
2023-10-09T04:24:58.275Z,93.98
2023-10-09T04:28:21.374Z,94.04
2023-10-09T04:31:46.001Z,93.90
2023-10-09T04:35:21.695Z,94.66
2023-10-09T04:38:54.270Z,94.69
2023-10-09T04:42:37.609Z,95.52
2023-10-09T04:46:10.426Z,95.36
2023-10-09T04:49:46.928Z,95.25
2023-10-09T04:53:23.464Z,95.63
2023-10-09T04:56:53.713Z,95.56
2023-10-09T05:00:36.765Z,95.19
2023-10-09T05:04:04.601Z,95.08
2023-10-09T05:07:47.525Z,94.94
2023-10-09T05:11:18.189Z,95.25
2023-10-09T05:14:41.045Z,94.66
2023-10-09T05:18:10.482Z,94.68
2023-10-09T05:21:38.134Z,95.28
2023-10-09T05:25:01.969Z,95.44
2023-10-09T05:32:16.679Z,95.53
2023-10-09T05:36:04.388Z,95.39
2023-10-09T05:39:42.618Z,95.20
2023-10-09T05:43:06.579Z,95.17
2023-10-09T05:46:36.639Z,94.95
2023-10-09T05:50:24.309Z,94.52
2023-10-09T05:54:12.943Z,94.58
2023-10-09T05:57:48.565Z,94.70
2023-10-09T06:01:27.806Z,94.76
2023-10-09T06:04:55.452Z,95.09
2023-10-09T06:08:25.888Z,95.34
2023-10-09T06:11:50.694Z,94.86
2023-10-09T06:15:32.873Z,94.82
2023-10-09T06:19:09.332Z,94.54
2023-10-09T06:22:57.585Z,94.99
2023-10-09T06:26:26.504Z,94.57
2023-10-09T06:30:14.193Z,94.48
2023-10-09T06:33:56.144Z,95.04
2023-10-09T06:37:20.455Z,95.17
2023-10-09T06:40:59.771Z,95.37
2023-10-09T06:44:53.105Z,95.86
2023-10-09T06:48:38.367Z,95.67
2023-10-09T06:52:14.764Z,95.85
2023-10-09T06:55:49.226Z,96.39
2023-10-09T06:59:18.512Z,96.58
2023-10-09T07:02:47.252Z,96.81
2023-10-09T07:06:25.334Z,96.32
2023-10-09T07:10:07.089Z,94.81
2023-10-09T07:13:29.012Z,95.11
2023-10-09T07:16:58.465Z,95.30
2023-10-09T07:20:35.906Z,95.30
2023-10-09T07:24:15.289Z,94.91
2023-10-09T07:27:45.761Z,95.36
2023-10-09T07:31:10.687Z,95.18
2023-10-09T07:34:34.182Z,95.00
2023-10-09T07:37:57.676Z,94.10
2023-10-09T07:41:40.369Z,94.49
2023-10-09T07:45:13.690Z,94.56
2023-10-09T07:48:41.602Z,94.10
2023-10-09T07:52:03.255Z,94.81
2023-10-09T07:55:40.359Z,94.67
2023-10-09T07:59:02.420Z,94.36
2023-10-09T08:02:32.834Z,94.11
2023-10-09T08:06:08.191Z,93.33
2023-10-09T08:09:47.560Z,92.95
2023-10-09T08:13:36.302Z,93.89
2023-10-09T08:17:12.751Z,92.61
2023-10-09T08:20:52.326Z,92.49
2023-10-09T08:24:36.793Z,92.83
2023-10-09T08:27:59.692Z,92.10
2023-10-09T08:31:35.728Z,92.10
2023-10-09T08:35:01.927Z,91.84
2023-10-09T08:38:25.555Z,91.93
2023-10-09T08:41:47.734Z,91.71
2023-10-09T08:45:11.690Z,90.84
2023-10-09T08:48:38.566Z,91.07
2023-10-09T08:52:04.325Z,90.79
2023-10-09T08:55:26.263Z,90.99
2023-10-09T08:58:48.017Z,90.91
2023-10-09T09:02:12.265Z,90.61
2023-10-09T09:05:37.083Z,91.89
2023-10-09T09:09:15.156Z,92.01
2023-10-09T09:12:41.921Z,92.29
2023-10-09T09:16:04.008Z,91.59
2023-10-09T09:19:34.462Z,91.63
2023-10-09T09:22:58.603Z,91.10
2023-10-09T09:26:37.713Z,91.39
2023-10-09T09:30:08.564Z,90.68
2023-10-09T09:33:39.897Z,90.23
2023-10-09T09:37:04.907Z,90.05
2023-10-09T09:40:34.325Z,90.16
2023-10-09T09:44:01.436Z,89.83
2023-10-09T09:47:28.213Z,88.78
2023-10-09T09:50:55.021Z,88.63
2023-10-09T09:54:17.119Z,88.85
2023-10-09T09:57:40.861Z,88.97
2023-10-09T10:01:09.485Z,88.44
2023-10-09T10:04:36.696Z,88.94
2023-10-09T10:08:01.537Z,87.77
2023-10-09T10:11:46.651Z,88.72
2023-10-09T10:15:10.815Z,87.57
2023-10-09T10:18:34.958Z,87.00
2023-10-09T10:22:02.633Z,86.92
2023-10-09T10:25:37.031Z,87.25
2023-10-09T10:29:25.193Z,86.64
2023-10-09T10:32:58.730Z,85.32
2023-10-09T10:36:25.281Z,84.90
2023-10-09T10:39:52.321Z,85.32
2023-10-09T10:43:33.240Z,85.43
2023-10-09T10:46:55.246Z,85.96
2023-10-09T10:50:36.711Z,85.94
2023-10-09T10:54:18.910Z,85.15
2023-10-09T10:57:55.126Z,85.53
2023-10-09T11:01:16.806Z,85.61
2023-10-09T11:04:43.312Z,85.82
2023-10-09T11:08:11.757Z,85.56
2023-10-09T11:11:33.911Z,85.48
2023-10-09T11:15:09.049Z,85.07
2023-10-09T11:18:30.746Z,84.99
2023-10-09T11:21:59.842Z,84.52
2023-10-09T11:25:22.233Z,84.75
2023-10-09T11:28:50.100Z,83.83
2023-10-09T11:32:19.376Z,83.75
2023-10-09T11:35:42.821Z,83.50
2023-10-09T11:39:18.892Z,82.32
2023-10-09T11:42:50.312Z,81.45
2023-10-09T11:46:15.023Z,80.43
2023-10-09T11:49:45.411Z,79.80
2023-10-09T11:53:18.821Z,80.24
2023-10-09T11:56:40.451Z,80.17
2023-10-09T12:00:12.870Z,79.10
2023-10-09T12:03:35.026Z,79.88
2023-10-09T12:07:07.385Z,78.79
2023-10-09T12:10:30.945Z,78.55
2023-10-09T12:13:57.440Z,79.19
2023-10-09T12:17:20.945Z,78.91
2023-10-09T12:20:43.582Z,78.06
2023-10-09T12:24:12.820Z,78.17
2023-10-09T12:27:34.434Z,77.41
2023-10-09T12:30:56.072Z,77.41
2023-10-09T12:34:19.726Z,77.88
2023-10-09T12:37:44.070Z,77.71
2023-10-09T12:41:19.275Z,77.15
2023-10-09T12:44:41.049Z,76.76
2023-10-09T12:48:04.724Z,76.58
2023-10-09T12:51:31.062Z,76.84
2023-10-09T12:54:53.734Z,76.99
2023-10-09T12:58:16.738Z,77.23
2023-10-09T13:01:44.696Z,76.26
2023-10-09T13:05:07.416Z,75.43
2023-10-09T13:08:36.199Z,75.96
2023-10-09T13:12:00.813Z,75.41
2023-10-09T13:15:22.109Z,75.78
2023-10-09T13:18:50.964Z,76.14
2023-10-09T13:22:14.920Z,75.64
2023-10-09T13:25:41.024Z,74.77
2023-10-09T13:29:04.816Z,75.84
2023-10-09T13:32:27.120Z,75.30
2023-10-09T13:35:51.908Z,75.57
2023-10-09T13:39:24.647Z,76.76
2023-10-09T13:42:48.534Z,75.15
2023-10-09T13:46:11.414Z,75.77
2023-10-09T13:49:33.683Z,76.19
2023-10-09T13:52:55.634Z,75.90
2023-10-09T13:56:20.373Z,75.28
2023-10-09T13:59:50.552Z,75.51
2023-10-09T14:03:15.300Z,76.24
2023-10-09T14:06:38.306Z,75.62
2023-10-09T14:10:08.718Z,75.63
2023-10-09T14:13:31.014Z,75.55
2023-10-09T14:16:58.578Z,76.42
2023-10-09T14:20:31.554Z,77.29
2023-10-09T14:23:58.000Z,76.14
2023-10-09T14:27:19.447Z,77.95
2023-10-09T14:30:44.082Z,77.29
2023-10-09T14:34:10.217Z,77.84
2023-10-09T14:37:32.395Z,78.42
2023-10-09T14:40:58.641Z,77.60
2023-10-09T14:44:20.527Z,78.04
2023-10-09T14:47:42.365Z,77.80
2023-10-09T14:51:07.610Z,77.07
2023-10-09T14:54:29.022Z,77.47
2023-10-09T14:57:51.374Z,77.89
2023-10-09T15:01:16.274Z,78.20
2023-10-09T15:04:38.653Z,78.69
2023-10-09T15:08:01.974Z,79.62
2023-10-09T15:11:25.619Z,79.99
2023-10-09T15:14:47.493Z,80.32
2023-10-09T15:18:08.806Z,80.38
2023-10-09T15:21:33.306Z,79.72
2023-10-09T15:24:56.399Z,80.05
2023-10-09T15:28:18.517Z,80.10
2023-10-09T15:31:43.006Z,80.11
2023-10-09T15:35:07.351Z,80.17
2023-10-09T15:38:30.200Z,79.67
2023-10-09T15:41:53.246Z,80.04
2023-10-09T15:45:15.050Z,80.05
2023-10-09T15:48:37.584Z,80.31
2023-10-09T15:52:00.987Z,80.69
2023-10-09T15:55:25.307Z,80.20
2023-10-09T15:58:48.238Z,81.37
2023-10-09T16:02:09.688Z,83.61
2023-10-09T16:05:36.763Z,85.41
2023-10-09T16:08:58.309Z,86.08
2023-10-09T16:12:19.860Z,85.78
2023-10-09T16:15:45.206Z,86.26
2023-10-09T16:19:07.090Z,86.06
2023-10-09T16:22:29.289Z,86.77
2023-10-09T16:25:50.965Z,86.22
2023-10-09T16:29:13.456Z,86.43
2023-10-09T16:32:39.357Z,86.95
2023-10-09T16:36:01.087Z,86.60
2023-10-09T16:39:23.960Z,87.04
2023-10-09T16:42:45.371Z,86.83
2023-10-09T16:46:09.638Z,87.86
2023-10-09T16:49:32.366Z,88.12
2023-10-09T16:52:54.057Z,88.02
2023-10-09T16:56:15.991Z,88.49
2023-10-09T16:59:39.505Z,88.62
2023-10-09T17:03:01.116Z,88.98
2023-10-09T17:06:25.173Z,89.34
2023-10-09T17:09:48.675Z,89.67
2023-10-09T17:13:10.778Z,90.02
2023-10-09T17:16:31.992Z,90.88
2023-10-09T17:19:53.409Z,91.53
2023-10-09T17:23:16.955Z,91.66
2023-10-09T17:26:39.453Z,91.67
2023-10-09T17:30:01.492Z,91.88
2023-10-09T17:33:24.814Z,92.17
2023-10-09T17:36:50.386Z,91.73
2023-10-09T17:40:18.578Z,91.30
2023-10-09T17:43:40.846Z,91.46
2023-10-09T17:47:02.868Z,91.65
2023-10-09T17:50:24.518Z,91.61
2023-10-09T17:53:47.386Z,91.56
2023-10-09T17:57:10.540Z,90.83
2023-10-09T18:00:35.370Z,91.13
2023-10-09T18:04:00.036Z,90.50
2023-10-09T18:07:22.048Z,90.73
2023-10-09T18:10:45.288Z,91.36
2023-10-09T18:14:08.681Z,91.81
2023-10-09T18:17:30.736Z,91.73
2023-10-09T18:20:53.804Z,91.97
2023-10-09T18:24:15.998Z,91.55
2023-10-09T18:27:37.794Z,92.56
2023-10-09T18:31:00.510Z,92.56
2023-10-09T18:34:22.798Z,92.77
2023-10-09T18:37:44.710Z,92.02
2023-10-09T18:41:08.047Z,91.94
2023-10-09T18:44:30.420Z,92.51
2023-10-09T18:47:54.388Z,92.03
2023-10-09T18:51:18.512Z,92.01
2023-10-09T18:54:40.213Z,91.44
2023-10-09T18:58:03.458Z,92.21
2023-10-09T19:01:25.017Z,91.79
2023-10-09T19:04:48.654Z,92.13
2023-10-09T19:08:10.156Z,91.20
2023-10-09T19:11:33.246Z,91.91
2023-10-09T19:14:56.424Z,91.86
2023-10-09T19:18:18.217Z,92.09
2023-10-09T19:21:41.738Z,91.36
2023-10-09T19:25:08.125Z,91.78
2023-10-09T19:28:30.107Z,90.84
2023-10-09T19:31:52.339Z,90.40
2023-10-09T19:35:14.258Z,90.62
2023-10-09T19:38:38.649Z,90.88
2023-10-09T19:42:00.098Z,90.74
2023-10-09T19:45:22.051Z,91.44
2023-10-09T19:48:46.436Z,90.88
2023-10-09T19:52:08.458Z,90.68
2023-10-09T19:55:33.132Z,90.31
2023-10-09T19:58:55.452Z,89.57
2023-10-09T20:02:16.727Z,89.87
2023-10-09T20:05:41.572Z,89.96
2023-10-09T20:09:09.281Z,90.39
2023-10-09T20:12:32.379Z,90.50
2023-10-09T20:15:57.472Z,91.20
2023-10-09T20:19:20.466Z,90.98
2023-10-09T20:22:41.827Z,91.18
2023-10-09T20:26:04.764Z,91.42
2023-10-09T20:29:27.831Z,91.54
2023-10-09T20:32:49.171Z,92.14
2023-10-09T20:36:16.602Z,92.09
2023-10-09T20:39:39.378Z,91.94
2023-10-09T20:43:03.698Z,92.80
2023-10-09T20:46:26.765Z,92.92
2023-10-09T20:49:48.684Z,93.03
2023-10-09T20:53:10.141Z,93.48
2023-10-09T20:56:32.561Z,93.58
2023-10-09T20:59:55.706Z,93.57
2023-10-09T21:03:18.594Z,92.81
2023-10-09T21:06:39.973Z,92.74
2023-10-09T21:10:05.843Z,92.75
2023-10-09T21:13:27.793Z,93.30
2023-10-09T21:16:49.505Z,92.70
2023-10-09T21:20:17.280Z,93.15
2023-10-09T21:23:39.157Z,92.48
2023-10-09T21:27:00.280Z,92.57
2023-10-09T21:30:21.750Z,93.01
2023-10-09T21:33:44.050Z,92.97
2023-10-09T21:37:10.646Z,92.46
2023-10-09T21:40:31.938Z,93.54
2023-10-09T21:43:54.919Z,93.09
2023-10-09T21:47:16.657Z,93.55
2023-10-09T21:50:38.319Z,94.07
2023-10-09T21:54:01.219Z,94.33
2023-10-09T21:57:23.513Z,93.72
2023-10-09T22:00:48.028Z,94.62
2023-10-09T22:04:09.680Z,95.04
2023-10-09T22:07:33.016Z,94.21
2023-10-09T22:10:56.449Z,94.42
2023-10-09T22:14:19.873Z,94.45
2023-10-09T22:17:44.683Z,94.54
2023-10-09T22:21:10.970Z,93.54
2023-10-09T22:24:32.977Z,93.87
2023-10-09T22:28:03.205Z,93.27
2023-10-09T22:31:24.606Z,93.07
2023-10-09T22:34:46.348Z,93.63
2023-10-09T22:38:12.965Z,93.67
2023-10-09T22:41:35.769Z,93.82
2023-10-09T22:44:58.812Z,93.85
2023-10-09T22:48:27.893Z,94.41
2023-10-09T22:51:52.442Z,95.04
2023-10-09T22:55:17.732Z,95.20
2023-10-09T22:58:39.118Z,95.43
2023-10-09T23:02:02.281Z,95.52
2023-10-09T23:05:31.125Z,95.77
2023-10-09T23:08:55.904Z,96.35
2023-10-09T23:12:21.623Z,96.61
2023-10-09T23:15:50.520Z,96.82
2023-10-09T23:19:32.829Z,96.85
2023-10-09T23:22:55.031Z,97.01
2023-10-09T23:26:22.863Z,96.29
2023-10-09T23:29:52.858Z,96.07
2023-10-09T23:33:21.761Z,96.72
2023-10-09T23:36:45.903Z,97.12
2023-10-09T23:40:14.299Z,96.22
2023-10-09T23:43:45.500Z,96.30
2023-10-09T23:47:10.097Z,97.06
2023-10-09T23:50:33.013Z,97.29
2023-10-09T23:54:02.454Z,97.06
2023-10-09T23:57:29.886Z,97.88
